sensor_id;sensor_type;location;lat;lon;timestamp;temperature;humidity
1978;DHT22;989;53.016;8.346;2022-11-23T00:00:57;6.90;69.10
1978;DHT22;989;53.016;8.346;2022-11-23T00:03:22;6.90;74.70
1978;DHT22;989;53.016;8.346;2022-11-23T00:05:48;6.90;78.30
1978;DHT22;989;53.016;8.346;2022-11-23T00:08:14;6.90;82.00
1978;DHT22;989;53.016;8.346;2022-11-23T00:10:40;6.90;85.30
1978;DHT22;989;53.016;8.346;2022-11-23T00:13:06;6.80;88.40
1978;DHT22;989;53.016;8.346;2022-11-23T00:15:32;6.80;91.70
1978;DHT22;989;53.016;8.346;2022-11-23T00:17:58;6.80;91.90
1978;DHT22;989;53.016;8.346;2022-11-23T00:20:27;6.80;92.20
1978;DHT22;989;53.016;8.346;2022-11-23T00:22:52;6.80;93.20
1978;DHT22;989;53.016;8.346;2022-11-23T00:25:18;6.80;93.60
1978;DHT22;989;53.016;8.346;2022-11-23T00:27:43;6.80;93.70
1978;DHT22;989;53.016;8.346;2022-11-23T00:30:09;6.80;93.80
1978;DHT22;989;53.016;8.346;2022-11-23T00:32:36;6.70;94.10
1978;DHT22;989;53.016;8.346;2022-11-23T00:35:01;6.80;96.20
1978;DHT22;989;53.016;8.346;2022-11-23T00:37:27;6.80;96.80
1978;DHT22;989;53.016;8.346;2022-11-23T00:39:52;6.90;97.10
1978;DHT22;989;53.016;8.346;2022-11-23T00:42:18;6.90;97.20
1978;DHT22;989;53.016;8.346;2022-11-23T00:44:44;6.90;96.90
1978;DHT22;989;53.016;8.346;2022-11-23T00:47:09;6.90;97.40
1978;DHT22;989;53.016;8.346;2022-11-23T00:49:35;7.00;97.40
1978;DHT22;989;53.016;8.346;2022-11-23T00:52:00;7.00;97.40
1978;DHT22;989;53.016;8.346;2022-11-23T00:54:26;6.90;97.40
1978;DHT22;989;53.016;8.346;2022-11-23T00:56:51;6.90;97.90
1978;DHT22;989;53.016;8.346;2022-11-23T00:59:17;7.00;97.70
1978;DHT22;989;53.016;8.346;2022-11-23T01:01:43;6.90;97.70
1978;DHT22;989;53.016;8.346;2022-11-23T01:04:08;7.00;98.20
1978;DHT22;989;53.016;8.346;2022-11-23T01:06:36;7.00;97.80
1978;DHT22;989;53.016;8.346;2022-11-23T01:09:12;7.00;97.70
1978;DHT22;989;53.016;8.346;2022-11-23T01:11:39;7.00;97.30
1978;DHT22;989;53.016;8.346;2022-11-23T01:14:05;7.10;97.90
1978;DHT22;989;53.016;8.346;2022-11-23T01:16:33;7.10;96.60
1978;DHT22;989;53.016;8.346;2022-11-23T01:19:06;7.10;97.00
1978;DHT22;989;53.016;8.346;2022-11-23T01:21:34;7.00;95.50
1978;DHT22;989;53.016;8.346;2022-11-23T01:24:04;7.10;95.80
1978;DHT22;989;53.016;8.346;2022-11-23T01:26:31;7.10;95.60
1978;DHT22;989;53.016;8.346;2022-11-23T01:28:57;7.10;94.80
1978;DHT22;989;53.016;8.346;2022-11-23T01:31:23;7.10;95.60
1978;DHT22;989;53.016;8.346;2022-11-23T01:33:54;7.10;95.10
1978;DHT22;989;53.016;8.346;2022-11-23T01:36:23;7.10;95.00
1978;DHT22;989;53.016;8.346;2022-11-23T01:38:50;7.20;94.40
1978;DHT22;989;53.016;8.346;2022-11-23T01:41:21;7.20;94.10
1978;DHT22;989;53.016;8.346;2022-11-23T01:43:49;7.20;93.30
1978;DHT22;989;53.016;8.346;2022-11-23T01:46:16;7.10;94.00
1978;DHT22;989;53.016;8.346;2022-11-23T01:51:40;7.10;96.40
1978;DHT22;989;53.016;8.346;2022-11-23T01:54:20;7.10;98.10
1978;DHT22;989;53.016;8.346;2022-11-23T01:56:54;7.10;98.40
1978;DHT22;989;53.016;8.346;2022-11-23T01:59:22;7.00;99.60
1978;DHT22;989;53.016;8.346;2022-11-23T02:01:49;7.10;99.90
1978;DHT22;989;53.016;8.346;2022-11-23T02:04:22;7.00;99.90
1978;DHT22;989;53.016;8.346;2022-11-23T02:06:49;7.00;99.90
1978;DHT22;989;53.016;8.346;2022-11-23T02:09:15;7.00;99.90
1978;DHT22;989;53.016;8.346;2022-11-23T02:11:42;7.00;99.90
1978;DHT22;989;53.016;8.346;2022-11-23T02:14:08;7.00;99.90
1978;DHT22;989;53.016;8.346;2022-11-23T02:16:34;7.00;99.90
1978;DHT22;989;53.016;8.346;2022-11-23T02:19:01;7.10;99.90
1978;DHT22;989;53.016;8.346;2022-11-23T02:21:27;7.00;99.90
1978;DHT22;989;53.016;8.346;2022-11-23T02:24:02;7.10;99.90
1978;DHT22;989;53.016;8.346;2022-11-23T02:26:34;7.10;99.90
1978;DHT22;989;53.016;8.346;2022-11-23T02:29:20;7.10;99.90
1978;DHT22;989;53.016;8.346;2022-11-23T02:31:47;7.00;99.90
1978;DHT22;989;53.016;8.346;2022-11-23T02:34:13;7.10;99.90
1978;DHT22;989;53.016;8.346;2022-11-23T02:36:45;7.10;99.90
1978;DHT22;989;53.016;8.346;2022-11-23T02:39:19;7.10;99.90
1978;DHT22;989;53.016;8.346;2022-11-23T02:41:50;7.10;99.90
1978;DHT22;989;53.016;8.346;2022-11-23T02:46:42;7.20;99.90
1978;DHT22;989;53.016;8.346;2022-11-23T02:49:08;7.20;99.90
1978;DHT22;989;53.016;8.346;2022-11-23T02:51:33;7.20;99.90
1978;DHT22;989;53.016;8.346;2022-11-23T02:53:59;7.20;99.90
1978;DHT22;989;53.016;8.346;2022-11-23T02:56:25;7.20;99.90
1978;DHT22;989;53.016;8.346;2022-11-23T02:58:51;7.20;99.90
1978;DHT22;989;53.016;8.346;2022-11-23T03:01:17;7.20;99.90
1978;DHT22;989;53.016;8.346;2022-11-23T03:03:42;7.30;99.90
1978;DHT22;989;53.016;8.346;2022-11-23T03:06:08;7.20;99.90
1978;DHT22;989;53.016;8.346;2022-11-23T03:08:34;7.20;99.90
1978;DHT22;989;53.016;8.346;2022-11-23T03:11:02;7.20;99.90
1978;DHT22;989;53.016;8.346;2022-11-23T03:13:28;7.30;99.90
1978;DHT22;989;53.016;8.346;2022-11-23T03:15:54;7.30;99.90
1978;DHT22;989;53.016;8.346;2022-11-23T03:18:21;7.30;99.90
1978;DHT22;989;53.016;8.346;2022-11-23T03:20:47;7.30;99.90
1978;DHT22;989;53.016;8.346;2022-11-23T03:23:13;7.30;99.90
1978;DHT22;989;53.016;8.346;2022-11-23T03:25:38;7.30;99.90
1978;DHT22;989;53.016;8.346;2022-11-23T03:28:04;7.40;99.90
1978;DHT22;989;53.016;8.346;2022-11-23T03:30:30;7.40;99.90
1978;DHT22;989;53.016;8.346;2022-11-23T03:32:56;7.40;99.90
1978;DHT22;989;53.016;8.346;2022-11-23T03:35:22;7.40;99.90
1978;DHT22;989;53.016;8.346;2022-11-23T03:37:48;7.50;99.90
1978;DHT22;989;53.016;8.346;2022-11-23T03:40:13;7.50;99.90
1978;DHT22;989;53.016;8.346;2022-11-23T03:42:40;7.50;99.90
1978;DHT22;989;53.016;8.346;2022-11-23T03:45:06;7.50;99.90
1978;DHT22;989;53.016;8.346;2022-11-23T03:47:33;7.50;99.90
1978;DHT22;989;53.016;8.346;2022-11-23T03:49:59;7.50;99.90
1978;DHT22;989;53.016;8.346;2022-11-23T03:52:26;7.50;99.90
1978;DHT22;989;53.016;8.346;2022-11-23T03:54:51;7.50;99.90
1978;DHT22;989;53.016;8.346;2022-11-23T03:57:17;7.50;99.90
1978;DHT22;989;53.016;8.346;2022-11-23T03:59:42;7.60;99.90
1978;DHT22;989;53.016;8.346;2022-11-23T04:02:08;7.60;99.90
1978;DHT22;989;53.016;8.346;2022-11-23T04:04:34;7.60;99.90
1978;DHT22;989;53.016;8.346;2022-11-23T04:07:00;7.60;99.90
1978;DHT22;989;53.016;8.346;2022-11-23T04:09:26;7.60;99.90
1978;DHT22;989;53.016;8.346;2022-11-23T04:11:52;7.60;99.90
1978;DHT22;989;53.016;8.346;2022-11-23T04:14:17;7.60;99.90
1978;DHT22;989;53.016;8.346;2022-11-23T04:16:43;7.70;99.90
1978;DHT22;989;53.016;8.346;2022-11-23T04:19:09;7.70;99.90
1978;DHT22;989;53.016;8.346;2022-11-23T04:21:34;7.70;99.90
1978;DHT22;989;53.016;8.346;2022-11-23T04:24:00;7.70;99.90
1978;DHT22;989;53.016;8.346;2022-11-23T04:26:25;7.70;99.90
1978;DHT22;989;53.016;8.346;2022-11-23T04:28:51;7.70;99.90
1978;DHT22;989;53.016;8.346;2022-11-23T04:31:17;7.70;99.90
1978;DHT22;989;53.016;8.346;2022-11-23T04:33:42;7.70;99.90
1978;DHT22;989;53.016;8.346;2022-11-23T04:36:08;7.70;99.90
1978;DHT22;989;53.016;8.346;2022-11-23T04:38:34;7.70;99.90
1978;DHT22;989;53.016;8.346;2022-11-23T04:40:59;7.70;99.90
1978;DHT22;989;53.016;8.346;2022-11-23T04:43:25;7.70;99.90
1978;DHT22;989;53.016;8.346;2022-11-23T04:45:51;7.70;99.90
1978;DHT22;989;53.016;8.346;2022-11-23T04:48:16;7.70;99.90
1978;DHT22;989;53.016;8.346;2022-11-23T04:50:42;7.70;99.90
1978;DHT22;989;53.016;8.346;2022-11-23T04:53:08;7.70;99.90
1978;DHT22;989;53.016;8.346;2022-11-23T04:55:33;7.70;99.90
1978;DHT22;989;53.016;8.346;2022-11-23T04:57:59;7.70;99.90
1978;DHT22;989;53.016;8.346;2022-11-23T05:00:25;7.70;99.90
1978;DHT22;989;53.016;8.346;2022-11-23T05:02:51;7.70;99.90
1978;DHT22;989;53.016;8.346;2022-11-23T05:05:17;7.70;99.90
1978;DHT22;989;53.016;8.346;2022-11-23T05:07:42;7.70;99.90
1978;DHT22;989;53.016;8.346;2022-11-23T05:10:08;7.70;99.90
1978;DHT22;989;53.016;8.346;2022-11-23T05:12:35;7.70;99.90
1978;DHT22;989;53.016;8.346;2022-11-23T05:15:02;7.70;99.90
1978;DHT22;989;53.016;8.346;2022-11-23T05:17:29;7.70;99.90
1978;DHT22;989;53.016;8.346;2022-11-23T05:19:54;7.70;99.90
1978;DHT22;989;53.016;8.346;2022-11-23T05:22:20;7.70;99.90
1978;DHT22;989;53.016;8.346;2022-11-23T05:24:46;7.70;99.90
1978;DHT22;989;53.016;8.346;2022-11-23T05:27:12;7.60;99.90
1978;DHT22;989;53.016;8.346;2022-11-23T05:29:38;7.60;99.90
1978;DHT22;989;53.016;8.346;2022-11-23T05:32:03;7.60;99.90
1978;DHT22;989;53.016;8.346;2022-11-23T05:34:29;7.50;99.90
1978;DHT22;989;53.016;8.346;2022-11-23T05:36:55;7.60;99.90
1978;DHT22;989;53.016;8.346;2022-11-23T05:39:21;7.60;99.90
1978;DHT22;989;53.016;8.346;2022-11-23T05:41:47;7.60;99.90
1978;DHT22;989;53.016;8.346;2022-11-23T05:44:12;7.60;99.90
1978;DHT22;989;53.016;8.346;2022-11-23T05:46:38;7.70;99.90
1978;DHT22;989;53.016;8.346;2022-11-23T05:49:04;7.70;99.90
1978;DHT22;989;53.016;8.346;2022-11-23T05:51:29;7.70;99.90
1978;DHT22;989;53.016;8.346;2022-11-23T05:53:56;7.70;99.90
1978;DHT22;989;53.016;8.346;2022-11-23T05:56:22;7.70;99.90
1978;DHT22;989;53.016;8.346;2022-11-23T05:58:48;7.70;99.90
1978;DHT22;989;53.016;8.346;2022-11-23T06:01:14;7.60;99.90
1978;DHT22;989;53.016;8.346;2022-11-23T06:03:39;7.50;99.90
1978;DHT22;989;53.016;8.346;2022-11-23T06:06:05;7.50;99.90
1978;DHT22;989;53.016;8.346;2022-11-23T06:08:31;7.50;99.90
1978;DHT22;989;53.016;8.346;2022-11-23T06:10:59;7.50;99.90
1978;DHT22;989;53.016;8.346;2022-11-23T06:13:25;7.50;99.90
1978;DHT22;989;53.016;8.346;2022-11-23T06:15:51;7.50;99.90
1978;DHT22;989;53.016;8.346;2022-11-23T06:18:17;7.50;99.90
1978;DHT22;989;53.016;8.346;2022-11-23T06:20:43;7.60;99.90
1978;DHT22;989;53.016;8.346;2022-11-23T06:23:08;7.60;99.90
1978;DHT22;989;53.016;8.346;2022-11-23T06:25:34;7.60;99.90
1978;DHT22;989;53.016;8.346;2022-11-23T06:28:03;7.60;99.90
1978;DHT22;989;53.016;8.346;2022-11-23T06:30:29;7.60;99.90
1978;DHT22;989;53.016;8.346;2022-11-23T06:32:55;7.60;99.90
1978;DHT22;989;53.016;8.346;2022-11-23T06:35:21;7.60;99.90
1978;DHT22;989;53.016;8.346;2022-11-23T06:37:48;7.60;99.90
1978;DHT22;989;53.016;8.346;2022-11-23T06:40:15;7.50;99.90
1978;DHT22;989;53.016;8.346;2022-11-23T06:42:41;7.50;99.90
1978;DHT22;989;53.016;8.346;2022-11-23T06:45:08;7.40;99.90
1978;DHT22;989;53.016;8.346;2022-11-23T06:47:34;7.30;99.90
1978;DHT22;989;53.016;8.346;2022-11-23T06:50:00;7.30;99.90
1978;DHT22;989;53.016;8.346;2022-11-23T06:52:25;7.20;99.90
1978;DHT22;989;53.016;8.346;2022-11-23T06:54:51;7.10;99.90
1978;DHT22;989;53.016;8.346;2022-11-23T06:57:16;7.10;99.90
1978;DHT22;989;53.016;8.346;2022-11-23T06:59:42;7.10;99.90
1978;DHT22;989;53.016;8.346;2022-11-23T07:02:10;7.10;99.90
1978;DHT22;989;53.016;8.346;2022-11-23T07:04:36;7.10;99.90
1978;DHT22;989;53.016;8.346;2022-11-23T07:07:02;7.20;99.90
1978;DHT22;989;53.016;8.346;2022-11-23T07:09:27;7.30;99.90
1978;DHT22;989;53.016;8.346;2022-11-23T07:11:53;7.40;99.90
1978;DHT22;989;53.016;8.346;2022-11-23T07:14:19;7.40;99.90
1978;DHT22;989;53.016;8.346;2022-11-23T07:16:45;7.50;99.90
1978;DHT22;989;53.016;8.346;2022-11-23T07:19:10;7.60;99.90
1978;DHT22;989;53.016;8.346;2022-11-23T07:21:36;7.70;99.90
1978;DHT22;989;53.016;8.346;2022-11-23T07:24:02;7.70;99.90
1978;DHT22;989;53.016;8.346;2022-11-23T07:26:27;7.70;99.90
1978;DHT22;989;53.016;8.346;2022-11-23T07:28:53;7.70;99.90
1978;DHT22;989;53.016;8.346;2022-11-23T07:31:18;7.70;99.90
1978;DHT22;989;53.016;8.346;2022-11-23T07:33:45;7.70;99.90
1978;DHT22;989;53.016;8.346;2022-11-23T07:36:11;7.70;99.90
1978;DHT22;989;53.016;8.346;2022-11-23T07:38:37;7.70;99.90
1978;DHT22;989;53.016;8.346;2022-11-23T07:41:03;7.80;99.90
1978;DHT22;989;53.016;8.346;2022-11-23T07:43:29;7.80;99.90
1978;DHT22;989;53.016;8.346;2022-11-23T07:45:55;7.80;99.90
1978;DHT22;989;53.016;8.346;2022-11-23T07:48:21;7.80;99.90
1978;DHT22;989;53.016;8.346;2022-11-23T07:50:50;7.90;99.90
1978;DHT22;989;53.016;8.346;2022-11-23T07:53:17;7.90;99.90
1978;DHT22;989;53.016;8.346;2022-11-23T07:55:42;7.90;99.90
1978;DHT22;989;53.016;8.346;2022-11-23T07:58:09;7.90;99.90
1978;DHT22;989;53.016;8.346;2022-11-23T08:00:34;7.90;99.90
1978;DHT22;989;53.016;8.346;2022-11-23T08:03:00;7.90;99.90
1978;DHT22;989;53.016;8.346;2022-11-23T08:05:26;7.90;99.90
1978;DHT22;989;53.016;8.346;2022-11-23T08:07:59;7.90;99.90
1978;DHT22;989;53.016;8.346;2022-11-23T08:10:30;8.00;99.90
1978;DHT22;989;53.016;8.346;2022-11-23T08:13:01;8.10;99.90
1978;DHT22;989;53.016;8.346;2022-11-23T08:15:29;8.20;99.90
1978;DHT22;989;53.016;8.346;2022-11-23T08:18:00;8.20;99.90
1978;DHT22;989;53.016;8.346;2022-11-23T08:20:28;8.20;99.90
1978;DHT22;989;53.016;8.346;2022-11-23T08:22:54;8.30;99.90
1978;DHT22;989;53.016;8.346;2022-11-23T08:25:27;8.40;99.90
1978;DHT22;989;53.016;8.346;2022-11-23T08:28:03;8.30;99.90
1978;DHT22;989;53.016;8.346;2022-11-23T08:30:31;8.40;99.90
1978;DHT22;989;53.016;8.346;2022-11-23T08:32:57;8.40;99.90
1978;DHT22;989;53.016;8.346;2022-11-23T08:35:23;8.40;99.90
1978;DHT22;989;53.016;8.346;2022-11-23T08:37:49;8.50;99.90
1978;DHT22;989;53.016;8.346;2022-11-23T08:40:15;8.40;99.90
1978;DHT22;989;53.016;8.346;2022-11-23T08:42:41;8.40;99.90
1978;DHT22;989;53.016;8.346;2022-11-23T08:45:07;8.50;99.90
1978;DHT22;989;53.016;8.346;2022-11-23T08:47:33;8.50;99.90
1978;DHT22;989;53.016;8.346;2022-11-23T08:49:59;8.60;99.90
1978;DHT22;989;53.016;8.346;2022-11-23T08:52:25;8.60;99.90
1978;DHT22;989;53.016;8.346;2022-11-23T08:54:51;8.70;99.90
1978;DHT22;989;53.016;8.346;2022-11-23T08:57:16;8.70;99.90
1978;DHT22;989;53.016;8.346;2022-11-23T08:59:42;8.70;99.90
1978;DHT22;989;53.016;8.346;2022-11-23T09:02:11;8.70;99.90
1978;DHT22;989;53.016;8.346;2022-11-23T09:04:39;8.80;99.90
1978;DHT22;989;53.016;8.346;2022-11-23T09:07:05;8.80;99.90
1978;DHT22;989;53.016;8.346;2022-11-23T09:09:31;8.80;99.90
1978;DHT22;989;53.016;8.346;2022-11-23T09:11:57;8.90;99.90
1978;DHT22;989;53.016;8.346;2022-11-23T09:14:22;8.90;99.90
1978;DHT22;989;53.016;8.346;2022-11-23T09:16:48;8.90;99.90
1978;DHT22;989;53.016;8.346;2022-11-23T09:19:14;9.00;99.90
1978;DHT22;989;53.016;8.346;2022-11-23T09:21:39;8.90;99.90
1978;DHT22;989;53.016;8.346;2022-11-23T09:24:10;8.90;99.90
1978;DHT22;989;53.016;8.346;2022-11-23T09:26:37;8.90;99.90
1978;DHT22;989;53.016;8.346;2022-11-23T09:29:04;9.00;99.90
1978;DHT22;989;53.016;8.346;2022-11-23T09:31:31;9.00;99.90
1978;DHT22;989;53.016;8.346;2022-11-23T09:33:57;9.00;98.50
1978;DHT22;989;53.016;8.346;2022-11-23T09:36:23;9.10;99.40
1978;DHT22;989;53.016;8.346;2022-11-23T09:38:49;9.10;99.90
1978;DHT22;989;53.016;8.346;2022-11-23T09:41:44;9.20;99.90
1978;DHT22;989;53.016;8.346;2022-11-23T09:47:45;9.30;99.70
1978;DHT22;989;53.016;8.346;2022-11-23T09:50:47;9.20;97.10
1978;DHT22;989;53.016;8.346;2022-11-23T09:53:23;9.20;97.10
1978;DHT22;989;53.016;8.346;2022-11-23T09:55:55;9.10;97.10
1978;DHT22;989;53.016;8.346;2022-11-23T09:58:24;9.30;99.90
1978;DHT22;989;53.016;8.346;2022-11-23T10:01:00;9.50;98.50
1978;DHT22;989;53.016;8.346;2022-11-23T10:03:32;9.50;94.80
1978;DHT22;989;53.016;8.346;2022-11-23T10:06:21;9.40;92.30
1978;DHT22;989;53.016;8.346;2022-11-23T10:09:02;9.60;92.90
1978;DHT22;989;53.016;8.346;2022-11-23T10:12:07;9.60;92.00
1978;DHT22;989;53.016;8.346;2022-11-23T10:15:03;9.70;92.80
1978;DHT22;989;53.016;8.346;2022-11-23T10:17:44;9.90;89.00
1978;DHT22;989;53.016;8.346;2022-11-23T10:20:28;10.00;84.10
1978;DHT22;989;53.016;8.346;2022-11-23T10:26:03;10.20;73.00
1978;DHT22;989;53.016;8.346;2022-11-23T10:28:31;10.20;72.60
1978;DHT22;989;53.016;8.346;2022-11-23T10:31:14;10.30;65.40
1978;DHT22;989;53.016;8.346;2022-11-23T10:36:24;10.30;65.20
1978;DHT22;989;53.016;8.346;2022-11-23T10:38:54;10.30;65.20
1978;DHT22;989;53.016;8.346;2022-11-23T10:41:22;10.20;65.20
1978;DHT22;989;53.016;8.346;2022-11-23T10:46:55;10.40;64.60
1978;DHT22;989;53.016;8.346;2022-11-23T10:49:26;10.40;53.40
1978;DHT22;989;53.016;8.346;2022-11-23T10:52:05;10.20;56.30
1978;DHT22;989;53.016;8.346;2022-11-23T10:54:53;10.00;55.10
1978;DHT22;989;53.016;8.346;2022-11-23T10:57:42;9.80;63.30
1978;DHT22;989;53.016;8.346;2022-11-23T11:02:46;9.90;71.10
1978;DHT22;989;53.016;8.346;2022-11-23T11:05:33;10.10;67.40
1978;DHT22;989;53.016;8.346;2022-11-23T11:08:44;10.10;65.30
1978;DHT22;989;53.016;8.346;2022-11-23T11:11:03;10.00;59.90
1978;DHT22;989;53.016;8.346;2022-11-23T11:13:42;10.00;63.40
1978;DHT22;989;53.016;8.346;2022-11-23T11:16:21;10.00;63.00
1978;DHT22;989;53.016;8.346;2022-11-23T11:18:50;10.00;63.70
1978;DHT22;989;53.016;8.346;2022-11-23T11:21:26;10.00;62.70
1978;DHT22;989;53.016;8.346;2022-11-23T11:24:02;10.00;61.60
1978;DHT22;989;53.016;8.346;2022-11-23T11:26:31;10.00;57.80
1978;DHT22;989;53.016;8.346;2022-11-23T11:29:03;10.20;56.60
1978;DHT22;989;53.016;8.346;2022-11-23T11:31:53;10.30;51.50
1978;DHT22;989;53.016;8.346;2022-11-23T11:34:25;10.50;46.70
1978;DHT22;989;53.016;8.346;2022-11-23T11:37:48;10.50;38.50
1978;DHT22;989;53.016;8.346;2022-11-23T11:45:31;10.30;53.70
1978;DHT22;989;53.016;8.346;2022-11-23T11:48:12;10.40;56.70
1978;DHT22;989;53.016;8.346;2022-11-23T11:50:46;10.60;58.20
1978;DHT22;989;53.016;8.346;2022-11-23T11:53:21;10.80;54.60
1978;DHT22;989;53.016;8.346;2022-11-23T11:55:56;10.90;47.50
1978;DHT22;989;53.016;8.346;2022-11-23T11:58:24;11.20;47.30
1978;DHT22;989;53.016;8.346;2022-11-23T12:04:07;11.20;33.40
1978;DHT22;989;53.016;8.346;2022-11-23T12:06:42;11.10;28.70
1978;DHT22;989;53.016;8.346;2022-11-23T12:09:33;11.00;24.20
1978;DHT22;989;53.016;8.346;2022-11-23T12:12:03;11.00;26.30
1978;DHT22;989;53.016;8.346;2022-11-23T12:14:32;11.10;23.30
1978;DHT22;989;53.016;8.346;2022-11-23T12:17:09;11.10;21.90
1978;DHT22;989;53.016;8.346;2022-11-23T12:23:06;11.30;18.50
1978;DHT22;989;53.016;8.346;2022-11-23T12:25:43;11.40;16.10
1978;DHT22;989;53.016;8.346;2022-11-23T12:31:48;11.20;12.10
1978;DHT22;989;53.016;8.346;2022-11-23T12:37:41;11.40;12.90
1978;DHT22;989;53.016;8.346;2022-11-23T12:40:35;11.40;5.90
1978;DHT22;989;53.016;8.346;2022-11-23T12:43:25;11.50;3.90
1978;DHT22;989;53.016;8.346;2022-11-23T12:45:57;11.40;2.10
1978;DHT22;989;53.016;8.346;2022-11-23T12:51:26;11.30;5.30
1978;DHT22;989;53.016;8.346;2022-11-23T12:54:24;11.40;5.30
1978;DHT22;989;53.016;8.346;2022-11-23T12:57:17;11.30;2.80
1978;DHT22;989;53.016;8.346;2022-11-23T13:00:00;11.10;5.60
1978;DHT22;989;53.016;8.346;2022-11-23T13:09:19;10.50;13.80
1978;DHT22;989;53.016;8.346;2022-11-23T13:12:10;10.40;16.80
1978;DHT22;989;53.016;8.346;2022-11-23T13:21:22;10.20;20.20
1978;DHT22;989;53.016;8.346;2022-11-23T13:40:34;10.10;14.90
1978;DHT22;989;53.016;8.346;2022-11-23T13:48:57;10.10;8.00
1978;DHT22;989;53.016;8.346;2022-11-23T13:51:29;10.10;4.90
1978;DHT22;989;53.016;8.346;2022-11-23T13:56:33;10.00;7.50
1978;DHT22;989;53.016;8.346;2022-11-23T14:04:39;9.90;11.60
1978;DHT22;989;53.016;8.346;2022-11-23T14:07:23;9.80;11.30
1978;DHT22;989;53.016;8.346;2022-11-23T14:09:57;9.80;11.30
1978;DHT22;989;53.016;8.346;2022-11-23T14:15:22;9.80;5.50
1978;DHT22;989;53.016;8.346;2022-11-23T14:18:08;9.80;7.40
1978;DHT22;989;53.016;8.346;2022-11-23T14:27:03;9.60;2.90
1978;DHT22;989;53.016;8.346;2022-11-23T14:42:07;9.10;6.80
1978;DHT22;989;53.016;8.346;2022-11-23T14:44:38;8.90;10.00
1978;DHT22;989;53.016;8.346;2022-11-23T14:47:07;8.80;11.40
1978;DHT22;989;53.016;8.346;2022-11-23T14:49:33;8.80;13.10
1978;DHT22;989;53.016;8.346;2022-11-23T14:52:00;8.80;12.70
1978;DHT22;989;53.016;8.346;2022-11-23T14:54:28;8.80;11.40
1978;DHT22;989;53.016;8.346;2022-11-23T14:57:01;8.70;12.70
1978;DHT22;989;53.016;8.346;2022-11-23T14:59:35;8.70;15.00
1978;DHT22;989;53.016;8.346;2022-11-23T15:02:17;8.60;16.80
1978;DHT22;989;53.016;8.346;2022-11-23T15:08:09;8.40;17.10
1978;DHT22;989;53.016;8.346;2022-11-23T15:11:02;8.40;17.70
1978;DHT22;989;53.016;8.346;2022-11-23T15:13:41;8.20;19.10
1978;DHT22;989;53.016;8.346;2022-11-23T15:16:13;8.10;20.10
1978;DHT22;989;53.016;8.346;2022-11-23T15:18:40;8.00;23.10
1978;DHT22;989;53.016;8.346;2022-11-23T15:23:40;7.90;24.40
1978;DHT22;989;53.016;8.346;2022-11-23T15:26:15;7.80;26.20
1978;DHT22;989;53.016;8.346;2022-11-23T15:28:51;7.70;26.70
1978;DHT22;989;53.016;8.346;2022-11-23T15:31:34;7.70;25.80
1978;DHT22;989;53.016;8.346;2022-11-23T15:34:04;7.70;25.10
1978;DHT22;989;53.016;8.346;2022-11-23T15:36:37;7.50;24.90
1978;DHT22;989;53.016;8.346;2022-11-23T15:39:04;7.40;28.10
1978;DHT22;989;53.016;8.346;2022-11-23T15:41:35;7.30;28.70
1978;DHT22;989;53.016;8.346;2022-11-23T15:44:20;7.20;30.00
1978;DHT22;989;53.016;8.346;2022-11-23T15:46:51;7.10;32.50
1978;DHT22;989;53.016;8.346;2022-11-23T15:49:19;7.00;33.00
1978;DHT22;989;53.016;8.346;2022-11-23T15:51:45;6.90;33.80
1978;DHT22;989;53.016;8.346;2022-11-23T15:54:24;6.70;33.90
1978;DHT22;989;53.016;8.346;2022-11-23T15:56:54;6.60;33.80
1978;DHT22;989;53.016;8.346;2022-11-23T16:01:54;6.30;45.40
1978;DHT22;989;53.016;8.346;2022-11-23T16:04:25;6.30;48.60
1978;DHT22;989;53.016;8.346;2022-11-23T16:12:49;6.00;52.10
1978;DHT22;989;53.016;8.346;2022-11-23T16:15:34;5.80;54.60
1978;DHT22;989;53.016;8.346;2022-11-23T16:18:05;5.70;55.20
1978;DHT22;989;53.016;8.346;2022-11-23T16:20:47;5.60;56.50
1978;DHT22;989;53.016;8.346;2022-11-23T16:23:18;5.40;57.50
1978;DHT22;989;53.016;8.346;2022-11-23T16:25:52;5.40;61.30
1978;DHT22;989;53.016;8.346;2022-11-23T16:28:27;5.40;65.30
1978;DHT22;989;53.016;8.346;2022-11-23T16:30:54;5.60;68.90
1978;DHT22;989;53.016;8.346;2022-11-23T16:33:20;5.60;67.40
1978;DHT22;989;53.016;8.346;2022-11-23T16:35:46;5.60;68.20
1978;DHT22;989;53.016;8.346;2022-11-23T16:38:12;5.70;67.80
1978;DHT22;989;53.016;8.346;2022-11-23T16:40:42;5.70;65.80
1978;DHT22;989;53.016;8.346;2022-11-23T16:43:12;5.70;65.00
1978;DHT22;989;53.016;8.346;2022-11-23T16:45:41;5.70;65.60
1978;DHT22;989;53.016;8.346;2022-11-23T16:48:36;5.60;59.20
1978;DHT22;989;53.016;8.346;2022-11-23T16:51:06;5.40;60.50
1978;DHT22;989;53.016;8.346;2022-11-23T16:53:35;5.40;62.40
1978;DHT22;989;53.016;8.346;2022-11-23T16:56:01;5.40;62.10
1978;DHT22;989;53.016;8.346;2022-11-23T16:58:33;5.20;64.30
1978;DHT22;989;53.016;8.346;2022-11-23T17:01:00;5.10;65.50
1978;DHT22;989;53.016;8.346;2022-11-23T17:03:26;5.00;65.80
1978;DHT22;989;53.016;8.346;2022-11-23T17:05:52;4.90;67.50
1978;DHT22;989;53.016;8.346;2022-11-23T17:08:17;4.90;69.60
1978;DHT22;989;53.016;8.346;2022-11-23T17:10:43;4.80;73.00
1978;DHT22;989;53.016;8.346;2022-11-23T17:13:21;4.90;78.20
1978;DHT22;989;53.016;8.346;2022-11-23T17:15:49;5.00;78.40
1978;DHT22;989;53.016;8.346;2022-11-23T17:18:15;5.10;82.30
1978;DHT22;989;53.016;8.346;2022-11-23T17:20:42;5.20;81.40
1978;DHT22;989;53.016;8.346;2022-11-23T17:23:09;5.10;78.50
1978;DHT22;989;53.016;8.346;2022-11-23T17:25:35;5.10;76.50
1978;DHT22;989;53.016;8.346;2022-11-23T17:28:03;4.90;75.40
1978;DHT22;989;53.016;8.346;2022-11-23T17:30:30;4.90;78.40
1978;DHT22;989;53.016;8.346;2022-11-23T17:32:57;4.90;79.40
1978;DHT22;989;53.016;8.346;2022-11-23T17:35:24;5.00;83.00
1978;DHT22;989;53.016;8.346;2022-11-23T17:37:50;5.10;84.00
1978;DHT22;989;53.016;8.346;2022-11-23T17:40:18;5.30;88.90
1978;DHT22;989;53.016;8.346;2022-11-23T17:42:44;5.50;89.40
1978;DHT22;989;53.016;8.346;2022-11-23T17:45:11;5.60;86.70
1978;DHT22;989;53.016;8.346;2022-11-23T17:47:37;5.50;85.60
1978;DHT22;989;53.016;8.346;2022-11-23T17:50:05;5.60;84.70
1978;DHT22;989;53.016;8.346;2022-11-23T17:52:32;5.80;84.70
1978;DHT22;989;53.016;8.346;2022-11-23T17:54:58;5.70;80.80
1978;DHT22;989;53.016;8.346;2022-11-23T17:57:25;5.90;80.10
1978;DHT22;989;53.016;8.346;2022-11-23T17:59:51;5.90;79.20
1978;DHT22;989;53.016;8.346;2022-11-23T18:02:17;6.00;77.20
1978;DHT22;989;53.016;8.346;2022-11-23T18:04:44;6.10;73.90
1978;DHT22;989;53.016;8.346;2022-11-23T18:07:12;6.20;69.60
1978;DHT22;989;53.016;8.346;2022-11-23T18:09:40;6.30;67.70
1978;DHT22;989;53.016;8.346;2022-11-23T18:12:06;6.30;62.80
1978;DHT22;989;53.016;8.346;2022-11-23T18:14:32;6.40;60.00
1978;DHT22;989;53.016;8.346;2022-11-23T18:16:58;6.40;57.10
1978;DHT22;989;53.016;8.346;2022-11-23T18:19:23;6.50;52.20
1978;DHT22;989;53.016;8.346;2022-11-23T18:21:49;6.60;49.80
1978;DHT22;989;53.016;8.346;2022-11-23T18:24:15;6.70;46.00
1978;DHT22;989;53.016;8.346;2022-11-23T18:26:41;6.80;42.80
1978;DHT22;989;53.016;8.346;2022-11-23T18:29:07;6.80;42.30
1978;DHT22;989;53.016;8.346;2022-11-23T18:31:34;6.80;40.10
1978;DHT22;989;53.016;8.346;2022-11-23T18:33:59;6.80;40.50
1978;DHT22;989;53.016;8.346;2022-11-23T18:36:28;6.80;40.20
1978;DHT22;989;53.016;8.346;2022-11-23T18:38:54;6.80;39.00
1978;DHT22;989;53.016;8.346;2022-11-23T18:41:20;6.90;36.90
1978;DHT22;989;53.016;8.346;2022-11-23T18:43:45;7.00;34.30
1978;DHT22;989;53.016;8.346;2022-11-23T18:46:13;7.00;33.70
1978;DHT22;989;53.016;8.346;2022-11-23T18:48:45;7.00;33.50